📊 Raw Sensor Data

Showing records 35676 to 35700 of 84,882 total

ID Distance (ft) Battery V Battery A Int Temp (°F) Int Humid (%) Ext Temp (°F) Solar V RSSI SNR Time Stamp
49219 15.4 3.82 -5 61 46 62 0.00 -69 8 08/14/2025 11:30 PM
49218 15.4 3.90 -5 61 46 62 0.00 -70 8 08/14/2025 11:15 PM
49217 15.4 3.90 -5 61 46 62 0.00 -70 8 08/14/2025 11:00 PM
49216 15.3 3.90 -5 62 46 63 0.00 -69 8 08/14/2025 10:45 PM
49215 15.3 3.82 -5 63 47 63 0.00 -69 8 08/14/2025 10:30 PM
49214 15.3 3.83 -5 63 47 64 0.00 -70 7 08/14/2025 10:15 PM
49213 15.3 3.83 -5 64 48 65 0.00 -69 7 08/14/2025 10:00 PM
49212 15.3 3.83 -5 65 48 65 0.00 -68 7 08/14/2025 09:45 PM
49211 15.3 3.83 -5 65 49 66 0.00 -68 7 08/14/2025 09:30 PM
49210 15.3 3.90 -5 66 51 66 0.00 -69 8 08/14/2025 09:15 PM
49209 15.3 3.90 -5 67 52 66 0.00 -70 8 08/14/2025 09:00 PM
49208 15.3 3.83 -5 69 53 68 0.00 -69 7 08/14/2025 08:45 PM
49207 15.4 3.83 -5 71 55 69 0.00 -69 7 08/14/2025 08:30 PM
49206 15.4 3.91 -5 74 57 71 0.50 -69 8 08/14/2025 08:15 PM
49205 15.4 3.82 -10 78 58 73 4.20 -70 8 08/14/2025 08:00 PM
49204 15.5 3.84 0 86 55 78 4.50 -71 7 08/14/2025 07:45 PM
49203 15.5 3.85 0 90 54 83 4.60 -69 7 08/14/2025 07:30 PM
49202 15.5 3.94 6 94 53 87 4.60 -69 8 08/14/2025 07:15 PM
49201 15.5 3.97 0 96 52 88 4.50 -70 8 08/14/2025 07:00 PM
49200 15.5 3.90 10 98 51 90 4.50 -69 8 08/14/2025 06:45 PM
49199 15.6 3.90 5 99 51 89 5.10 -71 8 08/14/2025 06:30 PM
49198 15.6 3.90 0 101 50 90 5.10 -69 8 08/14/2025 06:15 PM
49197 15.6 3.93 5 103 49 91 5.10 -69 8 08/14/2025 06:00 PM
49196 15.6 3.90 5 104 48 94 5.10 -70 7 08/14/2025 05:45 PM
49195 15.6 3.90 0 105 47 94 5.10 -69 8 08/14/2025 05:30 PM